createdAt,value
2023-03-03T00:02:02.277Z,16.47
2023-03-03T00:04:32.339Z,19.67
2023-03-03T00:07:00.905Z,16.47
2023-03-03T00:09:29.436Z,17.23
2023-03-03T00:11:59.882Z,17.70
2023-03-03T00:14:32.775Z,18.67
2023-03-03T00:17:13.605Z,17.63
2023-03-03T00:19:47.367Z,18.23
2023-03-03T00:22:24.141Z,17.07
2023-03-03T00:24:52.505Z,18.50
2023-03-03T00:27:29.160Z,17.23
2023-03-03T00:29:59.146Z,19.33
2023-03-03T00:32:29.736Z,16.77
2023-03-03T00:35:21.363Z,17.20
2023-03-03T00:37:50.802Z,15.30
2023-03-03T00:40:25.463Z,15.83
2023-03-03T00:42:56.045Z,16.00
2023-03-03T00:45:41.241Z,16.73
2023-03-03T00:48:28.122Z,18.30
2023-03-03T00:50:59.567Z,17.47
2023-03-03T00:53:29.661Z,16.53
2023-03-03T00:55:58.832Z,15.90
2023-03-03T00:58:27.965Z,16.40
2023-03-03T01:00:58.936Z,15.80
2023-03-03T01:03:28.763Z,17.67
2023-03-03T01:05:58.690Z,16.47
2023-03-03T01:08:26.941Z,16.63
2023-03-03T01:10:58.424Z,15.90
2023-03-03T01:13:30.405Z,16.67
2023-03-03T01:15:59.739Z,18.37
2023-03-03T01:18:28.467Z,16.20
2023-03-03T01:20:57.967Z,15.97
2023-03-03T01:23:26.226Z,16.83
2023-03-03T01:25:54.307Z,16.67
2023-03-03T01:28:23.142Z,16.90
2023-03-03T01:30:51.933Z,18.23
2023-03-03T01:33:20.763Z,16.07
2023-03-03T01:35:49.898Z,17.40
2023-03-03T01:38:19.876Z,16.53
2023-03-03T01:40:54.421Z,17.33
2023-03-03T01:43:23.028Z,16.33
2023-03-03T01:46:32.139Z,16.30
2023-03-03T01:49:04.010Z,16.13
2023-03-03T01:51:35.860Z,15.87
2023-03-03T01:54:10.867Z,16.27
2023-03-03T01:56:39.530Z,16.67
2023-03-03T01:59:13.319Z,16.77
2023-03-03T02:01:43.825Z,17.67
2023-03-03T02:04:11.952Z,18.27
2023-03-03T02:06:43.415Z,17.73
2023-03-03T02:09:18.983Z,16.67
2023-03-03T02:11:51.991Z,17.07
2023-03-03T02:14:20.149Z,16.13
2023-03-03T02:16:50.754Z,16.37
2023-03-03T02:19:25.656Z,19.23
2023-03-03T02:21:54.470Z,17.30
2023-03-03T02:24:30.364Z,16.33
2023-03-03T02:27:00.677Z,17.50
2023-03-03T02:29:29.162Z,17.77
2023-03-03T02:31:57.284Z,16.57
2023-03-03T02:34:26.093Z,16.90
2023-03-03T02:36:54.199Z,16.57
2023-03-03T02:39:24.402Z,17.03
2023-03-03T02:41:55.990Z,17.37
2023-03-03T02:44:28.597Z,15.93
2023-03-03T02:46:57.277Z,16.63
2023-03-03T02:49:28.026Z,15.63
2023-03-03T02:51:56.764Z,17.17
2023-03-03T02:54:27.022Z,16.87
2023-03-03T02:56:55.181Z,15.93
2023-03-03T02:59:23.269Z,16.97
2023-03-03T03:01:53.249Z,15.80
2023-03-03T03:04:23.442Z,17.23
2023-03-03T03:06:52.305Z,17.17
2023-03-03T03:09:22.807Z,16.50
2023-03-03T03:11:50.976Z,16.37
2023-03-03T03:14:19.541Z,16.43
2023-03-03T03:16:47.720Z,16.73
2023-03-03T03:19:17.768Z,15.97
2023-03-03T03:21:45.870Z,16.83
2023-03-03T03:24:14.448Z,17.60
2023-03-03T03:26:42.555Z,16.27
2023-03-03T03:29:11.131Z,17.57
2023-03-03T03:31:39.782Z,17.03
2023-03-03T03:34:08.343Z,17.43
2023-03-03T03:36:38.631Z,16.23
2023-03-03T03:39:06.808Z,19.57
2023-03-03T03:41:35.385Z,17.30
2023-03-03T03:44:03.444Z,15.87
2023-03-03T03:46:32.178Z,17.23
2023-03-03T03:49:00.760Z,17.33
2023-03-03T03:51:29.331Z,16.07
2023-03-03T03:53:58.795Z,16.93
2023-03-03T03:56:27.344Z,16.33
2023-03-03T03:58:55.437Z,15.73
2023-03-03T04:01:23.984Z,15.93
2023-03-03T04:03:52.045Z,16.23
2023-03-03T04:06:21.035Z,18.60
2023-03-03T04:08:49.230Z,16.43
2023-03-03T04:11:19.227Z,16.40
2023-03-03T04:13:47.280Z,17.63
2023-03-03T04:16:15.451Z,18.07
2023-03-03T04:18:46.493Z,16.00
2023-03-03T04:21:16.116Z,17.80
2023-03-03T04:23:45.141Z,17.77
2023-03-03T04:26:13.251Z,16.33
2023-03-03T04:28:42.773Z,16.27
2023-03-03T04:31:11.352Z,18.07
2023-03-03T04:33:39.914Z,17.83
2023-03-03T04:36:08.234Z,18.37
2023-03-03T04:38:37.105Z,18.37
2023-03-03T04:41:05.829Z,17.50
2023-03-03T04:43:33.959Z,21.10
2023-03-03T04:46:04.017Z,18.33
2023-03-03T04:48:32.605Z,16.73
2023-03-03T04:51:00.700Z,18.43
2023-03-03T04:53:29.328Z,17.57
2023-03-03T04:55:57.907Z,16.93
2023-03-03T04:58:26.525Z,19.53
2023-03-03T05:00:56.786Z,18.50
2023-03-03T05:03:27.409Z,18.37
2023-03-03T05:05:55.777Z,17.93
2023-03-03T05:08:24.442Z,18.33
2023-03-03T05:10:53.990Z,18.53
2023-03-03T05:13:22.577Z,20.30
2023-03-03T05:15:52.115Z,16.77
2023-03-03T05:18:21.442Z,18.53
2023-03-03T05:20:52.036Z,19.83
2023-03-03T05:23:20.735Z,19.17
2023-03-03T05:25:49.707Z,18.13
2023-03-03T05:28:19.214Z,20.33
2023-03-03T05:30:47.797Z,20.97
2023-03-03T05:33:17.925Z,21.27
2023-03-03T05:35:46.909Z,21.23
2023-03-03T05:38:16.328Z,22.43
2023-03-03T05:40:44.976Z,19.40
2023-03-03T05:43:13.532Z,20.77
2023-03-03T05:45:41.788Z,19.00
2023-03-03T05:48:10.715Z,22.03
2023-03-03T05:50:39.529Z,19.30
2023-03-03T05:53:08.107Z,20.67
2023-03-03T05:55:38.151Z,22.03
2023-03-03T05:58:06.198Z,20.23
2023-03-03T06:04:22.538Z,18.10
2023-03-03T06:06:50.945Z,20.63
2023-03-03T06:09:21.008Z,20.40
2023-03-03T06:11:52.876Z,22.27
2023-03-03T06:14:21.614Z,23.80
2023-03-03T06:16:50.080Z,20.80
2023-03-03T06:19:18.322Z,22.37
2023-03-03T06:21:46.498Z,22.63
2023-03-03T06:24:15.136Z,22.03
2023-03-03T06:26:43.272Z,21.87
2023-03-03T06:29:15.293Z,23.17
2023-03-03T06:31:44.410Z,23.07
2023-03-03T06:34:12.625Z,23.70
2023-03-03T06:36:40.966Z,23.10
2023-03-03T06:39:09.409Z,23.03
2023-03-03T06:41:37.625Z,29.13
2023-03-03T06:44:06.404Z,38.93
2023-03-03T06:46:35.951Z,43.83
2023-03-03T06:49:04.779Z,42.33
2023-03-03T06:51:35.191Z,44.27
2023-03-03T06:54:08.195Z,40.97
2023-03-03T06:56:38.180Z,33.83
2023-03-03T06:59:12.859Z,28.77
2023-03-03T07:01:43.983Z,27.03
2023-03-03T07:04:18.017Z,31.10
2023-03-03T07:06:46.326Z,26.77
2023-03-03T07:09:24.120Z,26.30
2023-03-03T07:11:52.600Z,28.80
2023-03-03T07:14:21.953Z,26.77
2023-03-03T07:16:57.780Z,28.93
2023-03-03T07:19:34.651Z,34.17
2023-03-03T07:22:15.571Z,29.60
2023-03-03T07:24:46.070Z,31.97
2023-03-03T07:27:19.067Z,32.87
2023-03-03T07:29:49.402Z,29.77
2023-03-03T07:32:28.158Z,30.33
2023-03-03T07:34:57.770Z,26.77
2023-03-03T07:37:32.421Z,32.13
2023-03-03T07:40:01.812Z,31.53
2023-03-03T07:42:40.500Z,30.97
2023-03-03T07:45:27.266Z,28.50
2023-03-03T07:48:10.420Z,30.67
2023-03-03T07:50:38.487Z,27.53
2023-03-03T07:53:16.060Z,29.87
2023-03-03T07:55:46.307Z,30.97
2023-03-03T07:58:23.708Z,29.67
2023-03-03T08:01:21.989Z,29.27
2023-03-03T08:03:52.581Z,29.57
2023-03-03T08:06:42.748Z,31.67
2023-03-03T08:09:39.605Z,29.43
2023-03-03T08:12:42.338Z,28.90
2023-03-03T08:15:21.022Z,28.27
2023-03-03T08:17:50.159Z,32.40
2023-03-03T08:20:47.845Z,27.97
2023-03-03T08:23:17.895Z,29.67
2023-03-03T08:25:47.092Z,32.63
2023-03-03T08:28:16.206Z,30.33
2023-03-03T08:30:45.999Z,30.13
2023-03-03T08:33:15.150Z,28.47
2023-03-03T08:35:43.724Z,30.97
2023-03-03T08:38:14.842Z,30.87
2023-03-03T08:40:44.041Z,27.93
2023-03-03T08:43:15.071Z,28.93
2023-03-03T08:45:45.246Z,30.07
2023-03-03T08:48:14.212Z,26.60
2023-03-03T08:50:43.382Z,27.63
2023-03-03T08:53:13.398Z,26.97
2023-03-03T08:55:42.496Z,27.73
2023-03-03T08:58:10.663Z,27.53
2023-03-03T09:00:39.938Z,27.63
2023-03-03T09:03:08.349Z,25.97
2023-03-03T09:05:38.533Z,26.97
2023-03-03T09:08:07.364Z,27.23
2023-03-03T09:10:37.287Z,27.77
2023-03-03T09:13:14.093Z,26.07
2023-03-03T09:15:43.319Z,29.63
2023-03-03T09:18:20.110Z,25.57
2023-03-03T09:20:50.602Z,23.97
2023-03-03T09:23:31.135Z,27.43
2023-03-03T09:26:19.062Z,25.73
2023-03-03T09:28:47.613Z,26.37
2023-03-03T09:31:26.372Z,26.43
2023-03-03T09:33:58.281Z,25.03
2023-03-03T09:36:29.444Z,26.83
2023-03-03T09:38:59.188Z,25.77
2023-03-03T09:42:16.761Z,25.47
2023-03-03T09:45:28.241Z,23.10
2023-03-03T09:48:21.474Z,24.37
2023-03-03T09:51:00.668Z,23.33
2023-03-03T09:53:53.124Z,25.40
2023-03-03T09:56:30.027Z,24.10
2023-03-03T09:59:17.498Z,25.37
2023-03-03T10:01:56.632Z,23.83
2023-03-03T10:04:50.103Z,25.07
2023-03-03T10:07:29.316Z,24.83
2023-03-03T10:10:12.250Z,21.80
2023-03-03T10:12:50.623Z,27.17
2023-03-03T10:15:29.212Z,22.53
2023-03-03T10:18:04.886Z,27.37
2023-03-03T10:20:51.148Z,24.67
2023-03-03T10:23:25.446Z,25.33
2023-03-03T10:26:08.884Z,24.47
2023-03-03T10:29:08.588Z,23.10
2023-03-03T10:31:56.459Z,21.77
2023-03-03T10:34:50.024Z,22.73
2023-03-03T10:37:25.978Z,21.60
2023-03-03T10:40:11.315Z,23.03
2023-03-03T10:42:50.994Z,21.43
2023-03-03T10:45:41.585Z,21.27
2023-03-03T10:48:31.516Z,23.13
2023-03-03T10:51:08.853Z,20.60
2023-03-03T10:53:49.149Z,20.90
2023-03-03T10:56:32.098Z,23.67
2023-03-03T10:59:23.539Z,24.97
2023-03-03T11:01:58.632Z,21.23
2023-03-03T11:04:43.576Z,22.63
2023-03-03T11:07:18.636Z,21.30
2023-03-03T11:09:58.536Z,21.20
2023-03-03T11:12:39.606Z,21.27
2023-03-03T11:15:24.219Z,20.03
2023-03-03T11:18:09.706Z,21.30
2023-03-03T11:20:44.234Z,21.00
2023-03-03T11:23:40.172Z,20.60
2023-03-03T11:26:13.167Z,19.70
2023-03-03T11:28:56.194Z,19.67
2023-03-03T11:31:32.235Z,18.58
2023-03-03T11:34:09.447Z,21.40
2023-03-03T11:36:44.593Z,19.85
2023-03-03T11:39:17.274Z,19.60
2023-03-03T11:42:01.011Z,20.08
2023-03-03T11:44:33.496Z,18.25
2023-03-03T11:47:07.622Z,17.42
2023-03-03T11:49:41.242Z,18.48
2023-03-03T11:52:25.908Z,19.00
2023-03-03T11:54:58.341Z,19.35
2023-03-03T11:57:34.311Z,18.15
2023-03-03T12:00:12.927Z,18.35
2023-03-03T12:03:11.023Z,17.50
2023-03-03T12:06:01.900Z,17.58
2023-03-03T12:08:45.625Z,18.45
2023-03-03T12:11:24.356Z,17.27
2023-03-03T12:13:59.377Z,17.80
2023-03-03T12:16:45.166Z,17.50
2023-03-03T12:19:32.736Z,16.10
2023-03-03T12:22:13.210Z,18.20
2023-03-03T12:24:54.561Z,17.17
2023-03-03T12:27:30.426Z,15.90
2023-03-03T12:30:13.778Z,17.20
2023-03-03T12:32:56.754Z,16.00
2023-03-03T12:35:32.796Z,16.80
2023-03-03T12:38:08.325Z,16.45
2023-03-03T12:40:45.814Z,14.95
2023-03-03T12:43:22.960Z,14.88
2023-03-03T12:46:02.119Z,14.40
2023-03-03T12:48:39.988Z,15.02
2023-03-03T12:51:17.907Z,14.80
2023-03-03T12:54:19.128Z,15.38
2023-03-03T12:56:54.237Z,14.38
2023-03-03T12:59:29.835Z,14.57
2023-03-03T13:02:17.464Z,14.00
2023-03-03T13:04:54.230Z,14.05
2023-03-03T13:07:29.265Z,14.27
2023-03-03T13:10:12.561Z,14.77
2023-03-03T13:12:47.126Z,14.02
2023-03-03T13:15:24.831Z,13.23
2023-03-03T13:18:17.526Z,13.30
2023-03-03T13:20:52.686Z,12.60
2023-03-03T13:23:33.603Z,13.95
2023-03-03T13:26:09.377Z,14.55
2023-03-03T13:28:43.942Z,13.40
2023-03-03T13:31:21.411Z,12.88
2023-03-03T13:33:55.308Z,11.60
2023-03-03T13:36:32.025Z,13.35
2023-03-03T13:39:05.882Z,13.15
2023-03-03T13:41:42.724Z,12.30
2023-03-03T13:44:16.508Z,13.57
2023-03-03T13:46:53.198Z,13.85
2023-03-03T13:49:40.042Z,13.32
2023-03-03T13:52:11.899Z,12.43
2023-03-03T13:55:11.538Z,13.43
2023-03-03T13:57:56.579Z,11.98
2023-03-03T14:00:37.492Z,11.95
2023-03-03T14:03:24.604Z,11.82
2023-03-03T14:05:55.421Z,10.30
2023-03-03T14:08:39.862Z,10.68
2023-03-03T14:11:13.323Z,10.75
2023-03-03T14:13:51.242Z,10.70
2023-03-03T14:16:32.010Z,12.65
2023-03-03T14:19:07.429Z,10.02
2023-03-03T14:21:41.947Z,11.00
2023-03-03T14:24:18.740Z,11.02
2023-03-03T14:26:49.712Z,11.13
2023-03-03T14:29:30.391Z,14.00
2023-03-03T14:32:03.105Z,10.60
2023-03-03T14:34:39.952Z,11.32
2023-03-03T14:37:24.473Z,10.63
2023-03-03T14:40:02.916Z,9.93
2023-03-03T14:42:34.775Z,9.20
2023-03-03T14:45:28.585Z,10.32
2023-03-03T14:48:00.669Z,9.82
2023-03-03T14:50:38.008Z,9.75
2023-03-03T14:53:16.712Z,10.20
2023-03-03T14:55:47.010Z,8.55
2023-03-03T14:58:40.370Z,10.15
2023-03-03T15:01:14.037Z,10.23
2023-03-03T15:03:49.766Z,9.35
2023-03-03T15:06:34.481Z,9.43
2023-03-03T15:09:36.127Z,8.88
2023-03-03T15:12:21.912Z,11.18
2023-03-03T15:14:51.880Z,8.98
2023-03-03T15:17:30.535Z,8.80
2023-03-03T15:20:11.745Z,8.63
2023-03-03T15:22:50.609Z,9.27
2023-03-03T15:25:41.938Z,9.93
2023-03-03T15:28:34.372Z,13.73
2023-03-03T15:31:09.361Z,9.13
2023-03-03T15:33:45.405Z,8.57
2023-03-03T15:36:23.759Z,9.18
2023-03-03T15:39:00.745Z,9.07
2023-03-03T15:41:41.699Z,10.77
2023-03-03T15:44:22.633Z,12.55
2023-03-03T15:47:06.128Z,12.82
2023-03-03T15:50:07.833Z,14.00
2023-03-03T15:52:49.851Z,9.82
2023-03-03T15:55:35.611Z,8.50
2023-03-03T15:58:36.952Z,7.40
2023-03-03T16:01:14.800Z,8.32
2023-03-03T16:03:48.504Z,9.32
2023-03-03T16:06:20.125Z,8.02
2023-03-03T16:08:58.535Z,7.97
2023-03-03T16:11:36.600Z,7.35
2023-03-03T16:14:30.205Z,8.40
2023-03-03T16:17:08.218Z,9.38
2023-03-03T16:19:45.260Z,7.65
2023-03-03T16:22:32.064Z,8.57
2023-03-03T16:25:20.094Z,7.78
2023-03-03T16:27:53.584Z,6.85
2023-03-03T16:30:31.098Z,8.63
2023-03-03T16:33:12.732Z,8.00
2023-03-03T16:35:47.050Z,8.98
2023-03-03T16:38:22.236Z,7.00
2023-03-03T16:40:55.837Z,9.02
2023-03-03T16:43:31.549Z,7.25
2023-03-03T16:46:04.383Z,8.05
2023-03-03T16:48:43.984Z,6.82
2023-03-03T16:51:22.623Z,8.73
2023-03-03T16:53:58.498Z,9.15
2023-03-03T16:56:35.083Z,8.88
2023-03-03T16:59:18.680Z,9.45
2023-03-03T17:01:57.994Z,7.85
2023-03-03T17:04:41.142Z,6.28
2023-03-03T17:07:21.674Z,6.72
2023-03-03T17:10:05.373Z,6.20
2023-03-03T17:12:54.361Z,6.97
2023-03-03T17:15:39.838Z,6.00
2023-03-03T17:18:14.983Z,6.82
2023-03-03T17:20:49.604Z,7.45
2023-03-03T17:23:44.328Z,6.78
2023-03-03T17:26:29.654Z,7.90
2023-03-03T17:29:12.967Z,7.25
2023-03-03T17:31:51.799Z,5.28
2023-03-03T17:34:34.155Z,4.82
2023-03-03T17:37:13.981Z,4.95
2023-03-03T17:40:12.020Z,6.03
2023-03-03T17:42:49.404Z,4.80
2023-03-03T17:45:21.927Z,6.65
2023-03-03T17:48:09.594Z,4.50
2023-03-03T17:50:54.207Z,4.45
2023-03-03T17:53:50.229Z,4.55
2023-03-03T17:56:23.244Z,5.67
2023-03-03T17:59:17.658Z,9.43
2023-03-03T18:02:16.423Z,5.45
2023-03-03T18:05:09.766Z,5.30
2023-03-03T18:07:50.045Z,4.93
2023-03-03T18:10:44.677Z,4.47
2023-03-03T18:13:35.125Z,4.50
2023-03-03T18:16:13.928Z,5.50
2023-03-03T18:19:10.828Z,6.20
2023-03-03T18:21:45.177Z,5.07
2023-03-03T18:24:28.790Z,5.90
2023-03-03T18:26:57.636Z,4.93
2023-03-03T18:29:28.486Z,5.33
2023-03-03T18:32:20.178Z,4.93
2023-03-03T18:34:54.054Z,5.57
2023-03-03T18:37:41.898Z,7.23
2023-03-03T18:40:50.245Z,6.10
2023-03-03T18:43:50.404Z,5.77
2023-03-03T18:46:47.996Z,4.93
2023-03-03T18:49:17.667Z,5.73
2023-03-03T18:51:52.723Z,5.40
2023-03-03T18:54:31.020Z,5.43
2023-03-03T18:57:19.282Z,5.00
2023-03-03T18:59:58.404Z,5.70
2023-03-03T19:02:35.920Z,5.50
2023-03-03T19:05:24.461Z,5.77
2023-03-03T19:07:59.671Z,5.67
2023-03-03T19:10:51.424Z,6.63
2023-03-03T19:13:47.677Z,6.53
2023-03-03T19:16:37.818Z,7.63
2023-03-03T19:19:17.645Z,7.37
2023-03-03T19:21:51.233Z,9.20
2023-03-03T19:24:35.038Z,10.03
2023-03-03T19:27:35.030Z,7.00
2023-03-03T19:30:38.969Z,6.80
2023-03-03T19:33:23.570Z,6.60
2023-03-03T19:36:21.805Z,6.57
2023-03-03T19:39:03.545Z,6.30
2023-03-03T19:41:56.293Z,6.33
2023-03-03T19:44:45.677Z,5.33
2023-03-03T19:47:25.559Z,6.50
2023-03-03T19:50:07.785Z,7.80
2023-03-03T19:52:41.741Z,6.60
2023-03-03T19:55:23.251Z,6.80
2023-03-03T19:58:04.015Z,5.77
2023-03-03T20:00:39.474Z,5.97
2023-03-03T20:03:45.864Z,5.37
2023-03-03T20:06:27.260Z,6.27
2023-03-03T20:09:06.339Z,7.17
2023-03-03T20:11:52.351Z,6.50
2023-03-03T20:14:40.182Z,6.63
2023-03-03T20:17:41.458Z,6.30
2023-03-03T20:20:34.074Z,6.63
2023-03-03T20:23:12.274Z,7.50
2023-03-03T20:25:46.103Z,6.50
2023-03-03T20:28:39.612Z,7.03
2023-03-03T20:31:16.429Z,7.67
2023-03-03T20:33:53.472Z,7.53
2023-03-03T20:36:30.475Z,7.07
2023-03-03T20:39:07.864Z,7.03
2023-03-03T20:41:55.146Z,7.53
2023-03-03T20:44:38.392Z,6.87
2023-03-03T20:47:15.187Z,7.47
2023-03-03T20:49:59.137Z,6.83
2023-03-03T20:52:37.910Z,7.60
2023-03-03T20:55:12.586Z,7.13
2023-03-03T20:57:50.409Z,7.60
2023-03-03T21:00:26.370Z,8.00
2023-03-03T21:03:02.673Z,6.90
2023-03-03T21:05:30.874Z,7.73
2023-03-03T21:08:02.340Z,6.70
2023-03-03T21:10:32.342Z,6.77
2023-03-03T21:13:29.832Z,7.07
2023-03-03T21:16:02.932Z,7.47
2023-03-03T21:18:33.002Z,9.33
2023-03-03T21:21:01.840Z,8.77
2023-03-03T21:23:30.000Z,9.97
2023-03-03T21:25:59.246Z,7.67
2023-03-03T21:28:30.745Z,11.83
2023-03-03T21:31:11.755Z,7.57
2023-03-03T21:33:49.837Z,9.10
2023-03-03T21:36:20.653Z,7.87
2023-03-03T21:38:49.696Z,9.77
2023-03-03T21:41:19.138Z,8.60
2023-03-03T21:43:49.324Z,9.00
2023-03-03T21:46:21.820Z,7.77
2023-03-03T21:48:52.861Z,7.73
2023-03-03T21:51:21.486Z,7.57
2023-03-03T21:53:50.072Z,9.67
2023-03-03T21:56:18.665Z,8.60
2023-03-03T21:58:46.730Z,10.83
2023-03-03T22:01:15.347Z,8.07
2023-03-03T22:03:45.564Z,10.03
2023-03-03T22:06:15.549Z,9.07
2023-03-03T22:08:44.091Z,8.73
2023-03-03T22:11:13.286Z,8.73
2023-03-03T22:13:43.244Z,8.67
2023-03-03T22:16:13.108Z,8.37
2023-03-03T22:18:41.244Z,8.70
2023-03-03T22:21:09.389Z,8.17
2023-03-03T22:23:39.317Z,8.70
2023-03-03T22:26:07.907Z,9.07
2023-03-03T22:28:36.125Z,9.90
2023-03-03T22:31:04.812Z,10.30
2023-03-03T22:33:32.872Z,8.93
2023-03-03T22:36:01.414Z,10.07
2023-03-03T22:38:29.469Z,10.50
2023-03-03T22:41:00.050Z,8.53
2023-03-03T22:43:30.236Z,9.57
2023-03-03T22:45:58.428Z,9.50
2023-03-03T22:48:27.891Z,12.67
2023-03-03T22:50:56.068Z,25.60
2023-03-03T22:53:25.412Z,40.03
2023-03-03T22:55:53.952Z,36.50
2023-03-03T22:58:25.970Z,29.73
2023-03-03T23:00:55.272Z,27.63
2023-03-03T23:03:23.487Z,23.03
2023-03-03T23:05:52.243Z,16.27
2023-03-03T23:08:21.254Z,13.27
2023-03-03T23:10:49.855Z,12.37
2023-03-03T23:13:19.338Z,11.60
2023-03-03T23:15:48.856Z,13.97
2023-03-03T23:18:17.556Z,11.60
2023-03-03T23:20:46.165Z,12.17
2023-03-03T23:23:14.833Z,11.03
2023-03-03T23:25:43.389Z,11.20
2023-03-03T23:28:12.294Z,11.03
2023-03-03T23:30:40.856Z,10.67
2023-03-03T23:33:10.338Z,10.50
2023-03-03T23:35:38.926Z,9.93
2023-03-03T23:38:07.048Z,9.63
2023-03-03T23:40:35.637Z,11.63
2023-03-03T23:43:03.860Z,11.60
2023-03-03T23:45:31.928Z,19.27
2023-03-03T23:48:00.533Z,19.03
2023-03-03T23:50:32.176Z,15.93
2023-03-03T23:53:00.260Z,15.30
2023-03-03T23:55:28.873Z,14.97
2023-03-03T23:57:57.094Z,12.27
